sensor_id;sensor_type;location;lat;lon;timestamp;temperature;humidity
18454;DHT22;9356;52.202;20.950;2023-05-08T00:00:11;4.90;99.90
18454;DHT22;9356;52.202;20.950;2023-05-08T00:01:14;7.70;99.90
18454;DHT22;9356;52.202;20.950;2023-05-08T00:02:18;4.20;99.80
18454;DHT22;9356;52.202;20.950;2023-05-08T00:03:20;7.30;99.90
18454;DHT22;9356;52.202;20.950;2023-05-08T00:04:27;7.30;99.90
18454;DHT22;9356;52.202;20.950;2023-05-08T00:05:30;7.30;99.90
18454;DHT22;9356;52.202;20.950;2023-05-08T00:06:36;9.60;99.90
18454;DHT22;9356;52.202;20.950;2023-05-08T00:07:38;7.30;99.90
18454;DHT22;9356;52.202;20.950;2023-05-08T00:08:43;4.50;99.90
18454;DHT22;9356;52.202;20.950;2023-05-08T00:09:46;7.30;99.90
18454;DHT22;9356;52.202;20.950;2023-05-08T00:10:50;7.20;99.90
18454;DHT22;9356;52.202;20.950;2023-05-08T00:11:53;7.20;99.90
18454;DHT22;9356;52.202;20.950;2023-05-08T00:12:57;7.20;99.90
18454;DHT22;9356;52.202;20.950;2023-05-08T00:13:59;7.20;99.90
18454;DHT22;9356;52.202;20.950;2023-05-08T00:15:04;7.20;99.90
18454;DHT22;9356;52.202;20.950;2023-05-08T00:16:10;7.10;99.90
18454;DHT22;9356;52.202;20.950;2023-05-08T00:18:17;6.10;99.90
18454;DHT22;9356;52.202;20.950;2023-05-08T00:19:20;7.20;99.90
18454;DHT22;9356;52.202;20.950;2023-05-08T00:20:23;7.20;99.90
18454;DHT22;9356;52.202;20.950;2023-05-08T00:21:27;3.80;99.90
18454;DHT22;9356;52.202;20.950;2023-05-08T00:22:32;10.90;99.90
18454;DHT22;9356;52.202;20.950;2023-05-08T00:23:36;7.10;99.90
18454;DHT22;9356;52.202;20.950;2023-05-08T00:24:39;7.10;99.90
18454;DHT22;9356;52.202;20.950;2023-05-08T00:25:43;7.10;99.90
18454;DHT22;9356;52.202;20.950;2023-05-08T00:26:46;6.80;99.90
18454;DHT22;9356;52.202;20.950;2023-05-08T00:27:50;7.30;99.90
18454;DHT22;9356;52.202;20.950;2023-05-08T00:28:52;7.00;99.90
18454;DHT22;9356;52.202;20.950;2023-05-08T00:29:56;7.00;99.90
18454;DHT22;9356;52.202;20.950;2023-05-08T00:30:59;6.90;99.90
18454;DHT22;9356;52.202;20.950;2023-05-08T00:32:04;7.00;99.90
18454;DHT22;9356;52.202;20.950;2023-05-08T00:33:07;7.00;99.90
18454;DHT22;9356;52.202;20.950;2023-05-08T00:34:11;6.40;99.90
18454;DHT22;9356;52.202;20.950;2023-05-08T00:35:14;7.00;99.90
18454;DHT22;9356;52.202;20.950;2023-05-08T00:36:17;7.00;99.90
18454;DHT22;9356;52.202;20.950;2023-05-08T00:37:20;6.50;99.90
18454;DHT22;9356;52.202;20.950;2023-05-08T00:38:29;7.00;99.90
18454;DHT22;9356;52.202;20.950;2023-05-08T00:39:32;7.10;99.90
18454;DHT22;9356;52.202;20.950;2023-05-08T00:40:36;9.70;99.90
18454;DHT22;9356;52.202;20.950;2023-05-08T00:41:39;6.90;99.90
18454;DHT22;9356;52.202;20.950;2023-05-08T00:42:43;7.10;99.90
18454;DHT22;9356;52.202;20.950;2023-05-08T00:43:45;6.90;99.90
18454;DHT22;9356;52.202;20.950;2023-05-08T00:44:51;6.90;99.90
18454;DHT22;9356;52.202;20.950;2023-05-08T00:45:56;7.50;99.90
18454;DHT22;9356;52.202;20.950;2023-05-08T00:47:01;6.90;99.90
18454;DHT22;9356;52.202;20.950;2023-05-08T00:48:05;6.90;99.90
18454;DHT22;9356;52.202;20.950;2023-05-08T00:49:13;6.70;99.90
18454;DHT22;9356;52.202;20.950;2023-05-08T00:50:17;6.80;99.90
18454;DHT22;9356;52.202;20.950;2023-05-08T00:51:22;6.90;99.90
18454;DHT22;9356;52.202;20.950;2023-05-08T00:52:29;6.90;99.90
18454;DHT22;9356;52.202;20.950;2023-05-08T00:53:39;6.80;99.90
18454;DHT22;9356;52.202;20.950;2023-05-08T00:54:45;6.80;99.90
18454;DHT22;9356;52.202;20.950;2023-05-08T00:55:50;6.80;99.90
18454;DHT22;9356;52.202;20.950;2023-05-08T00:56:54;6.80;99.90
18454;DHT22;9356;52.202;20.950;2023-05-08T00:57:58;6.90;99.90
18454;DHT22;9356;52.202;20.950;2023-05-08T00:59:08;6.80;99.90
18454;DHT22;9356;52.202;20.950;2023-05-08T01:00:16;6.90;99.90
18454;DHT22;9356;52.202;20.950;2023-05-08T01:01:22;6.90;99.90
18454;DHT22;9356;52.202;20.950;2023-05-08T01:02:27;6.80;99.90
18454;DHT22;9356;52.202;20.950;2023-05-08T01:03:35;6.80;99.90
18454;DHT22;9356;52.202;20.950;2023-05-08T01:04:41;3.60;99.90
18454;DHT22;9356;52.202;20.950;2023-05-08T01:05:45;6.70;99.90
18454;DHT22;9356;52.202;20.950;2023-05-08T01:06:52;6.70;99.90
18454;DHT22;9356;52.202;20.950;2023-05-08T01:07:55;7.20;99.90
18454;DHT22;9356;52.202;20.950;2023-05-08T01:09:01;9.20;99.90
18454;DHT22;9356;52.202;20.950;2023-05-08T01:10:05;6.80;99.90
18454;DHT22;9356;52.202;20.950;2023-05-08T01:11:15;6.70;99.90
18454;DHT22;9356;52.202;20.950;2023-05-08T01:12:25;3.30;99.90
18454;DHT22;9356;52.202;20.950;2023-05-08T01:13:44;6.80;99.90
18454;DHT22;9356;52.202;20.950;2023-05-08T01:15:01;6.90;99.90
18454;DHT22;9356;52.202;20.950;2023-05-08T01:16:13;4.50;99.90
18454;DHT22;9356;52.202;20.950;2023-05-08T01:17:26;6.70;99.90
18454;DHT22;9356;52.202;20.950;2023-05-08T01:18:37;8.80;99.90
18454;DHT22;9356;52.202;20.950;2023-05-08T01:20:00;6.70;99.90
18454;DHT22;9356;52.202;20.950;2023-05-08T01:21:18;6.60;99.90
18454;DHT22;9356;52.202;20.950;2023-05-08T01:22:39;9.00;99.90
18454;DHT22;9356;52.202;20.950;2023-05-08T01:24:22;6.70;99.90
18454;DHT22;9356;52.202;20.950;2023-05-08T01:27:40;6.60;99.90
18454;DHT22;9356;52.202;20.950;2023-05-08T01:30:58;6.60;99.90
18454;DHT22;9356;52.202;20.950;2023-05-08T01:32:18;6.60;99.90
18454;DHT22;9356;52.202;20.950;2023-05-08T01:33:28;6.60;99.90
18454;DHT22;9356;52.202;20.950;2023-05-08T01:34:37;7.50;99.90
18454;DHT22;9356;52.202;20.950;2023-05-08T01:35:46;6.60;99.90
18454;DHT22;9356;52.202;20.950;2023-05-08T01:36:57;6.40;99.90
18454;DHT22;9356;52.202;20.950;2023-05-08T01:38:06;6.60;99.90
18454;DHT22;9356;52.202;20.950;2023-05-08T01:39:17;7.10;99.90
18454;DHT22;9356;52.202;20.950;2023-05-08T01:40:31;6.60;99.90
18454;DHT22;9356;52.202;20.950;2023-05-08T01:41:40;6.80;99.90
18454;DHT22;9356;52.202;20.950;2023-05-08T01:42:52;2.50;99.90
18454;DHT22;9356;52.202;20.950;2023-05-08T01:44:09;6.60;99.90
18454;DHT22;9356;52.202;20.950;2023-05-08T01:45:20;4.30;99.90
18454;DHT22;9356;52.202;20.950;2023-05-08T01:46:26;3.20;99.90
18454;DHT22;9356;52.202;20.950;2023-05-08T01:47:36;6.60;99.90
18454;DHT22;9356;52.202;20.950;2023-05-08T01:48:46;6.60;99.90
18454;DHT22;9356;52.202;20.950;2023-05-08T01:50:00;6.50;99.90
18454;DHT22;9356;52.202;20.950;2023-05-08T01:51:16;6.50;99.90
18454;DHT22;9356;52.202;20.950;2023-05-08T01:52:27;7.10;99.90
18454;DHT22;9356;52.202;20.950;2023-05-08T01:53:37;6.50;99.90
18454;DHT22;9356;52.202;20.950;2023-05-08T01:54:47;6.50;99.90
18454;DHT22;9356;52.202;20.950;2023-05-08T01:55:57;7.60;99.90
18454;DHT22;9356;52.202;20.950;2023-05-08T01:57:03;7.00;99.90
18454;DHT22;9356;52.202;20.950;2023-05-08T01:58:10;6.60;99.90
18454;DHT22;9356;52.202;20.950;2023-05-08T01:59:17;6.60;99.90
18454;DHT22;9356;52.202;20.950;2023-05-08T02:00:26;6.60;99.90
18454;DHT22;9356;52.202;20.950;2023-05-08T02:01:33;6.60;99.90
18454;DHT22;9356;52.202;20.950;2023-05-08T02:02:39;6.50;99.90
18454;DHT22;9356;52.202;20.950;2023-05-08T02:03:44;6.50;99.90
18454;DHT22;9356;52.202;20.950;2023-05-08T02:04:50;6.60;99.90
18454;DHT22;9356;52.202;20.950;2023-05-08T02:05:57;6.50;99.90
18454;DHT22;9356;52.202;20.950;2023-05-08T02:07:02;6.60;99.90
18454;DHT22;9356;52.202;20.950;2023-05-08T02:08:08;6.50;99.90
18454;DHT22;9356;52.202;20.950;2023-05-08T02:09:15;7.00;99.90
18454;DHT22;9356;52.202;20.950;2023-05-08T02:10:21;6.50;99.90
18454;DHT22;9356;52.202;20.950;2023-05-08T02:11:28;6.60;99.90
18454;DHT22;9356;52.202;20.950;2023-05-08T02:12:35;6.60;99.90
18454;DHT22;9356;52.202;20.950;2023-05-08T02:13:41;6.90;99.90
18454;DHT22;9356;52.202;20.950;2023-05-08T02:14:52;9.70;99.90
18454;DHT22;9356;52.202;20.950;2023-05-08T02:15:57;6.50;99.90
18454;DHT22;9356;52.202;20.950;2023-05-08T02:17:04;6.50;99.90
18454;DHT22;9356;52.202;20.950;2023-05-08T02:18:14;6.50;99.90
18454;DHT22;9356;52.202;20.950;2023-05-08T02:19:21;6.50;99.90
18454;DHT22;9356;52.202;20.950;2023-05-08T02:20:28;6.50;99.90
18454;DHT22;9356;52.202;20.950;2023-05-08T02:21:33;6.50;99.90
18454;DHT22;9356;52.202;20.950;2023-05-08T02:22:37;6.50;99.90
18454;DHT22;9356;52.202;20.950;2023-05-08T02:23:43;2.60;99.90
18454;DHT22;9356;52.202;20.950;2023-05-08T02:24:50;10.50;99.90
18454;DHT22;9356;52.202;20.950;2023-05-08T02:25:57;6.50;99.90
18454;DHT22;9356;52.202;20.950;2023-05-08T02:27:06;6.50;99.90
18454;DHT22;9356;52.202;20.950;2023-05-08T02:28:13;6.40;99.90
18454;DHT22;9356;52.202;20.950;2023-05-08T02:29:19;9.60;99.90
18454;DHT22;9356;52.202;20.950;2023-05-08T02:30:25;7.00;99.90
18454;DHT22;9356;52.202;20.950;2023-05-08T02:32:18;6.40;99.90
18454;DHT22;9356;52.202;20.950;2023-05-08T02:33:27;6.60;99.90
18454;DHT22;9356;52.202;20.950;2023-05-08T02:34:31;6.40;99.90
18454;DHT22;9356;52.202;20.950;2023-05-08T02:35:38;4.90;99.90
18454;DHT22;9356;52.202;20.950;2023-05-08T02:36:42;6.40;99.90
18454;DHT22;9356;52.202;20.950;2023-05-08T02:37:50;6.40;99.90
18454;DHT22;9356;52.202;20.950;2023-05-08T02:38:56;7.00;99.90
18454;DHT22;9356;52.202;20.950;2023-05-08T02:40:04;6.40;99.90
18454;DHT22;9356;52.202;20.950;2023-05-08T02:41:09;6.40;99.90
18454;DHT22;9356;52.202;20.950;2023-05-08T02:42:15;6.30;99.90
18454;DHT22;9356;52.202;20.950;2023-05-08T02:43:18;6.40;99.90
18454;DHT22;9356;52.202;20.950;2023-05-08T02:44:27;6.70;99.90
18454;DHT22;9356;52.202;20.950;2023-05-08T02:45:38;6.40;99.90
18454;DHT22;9356;52.202;20.950;2023-05-08T02:46:56;6.40;99.90
18454;DHT22;9356;52.202;20.950;2023-05-08T02:48:09;6.40;99.90
18454;DHT22;9356;52.202;20.950;2023-05-08T02:49:26;6.40;99.90
18454;DHT22;9356;52.202;20.950;2023-05-08T02:50:37;3.20;99.90
18454;DHT22;9356;52.202;20.950;2023-05-08T02:51:49;6.40;99.90
18454;DHT22;9356;52.202;20.950;2023-05-08T02:53:02;6.50;99.90
18454;DHT22;9356;52.202;20.950;2023-05-08T02:54:10;6.30;99.90
18454;DHT22;9356;52.202;20.950;2023-05-08T02:55:34;6.30;99.90
18454;DHT22;9356;52.202;20.950;2023-05-08T02:56:49;6.30;99.90
18454;DHT22;9356;52.202;20.950;2023-05-08T02:58:07;6.30;99.90
18454;DHT22;9356;52.202;20.950;2023-05-08T02:59:17;9.60;99.90
18454;DHT22;9356;52.202;20.950;2023-05-08T03:00:27;6.40;99.90
18454;DHT22;9356;52.202;20.950;2023-05-08T03:01:41;6.20;99.90
18454;DHT22;9356;52.202;20.950;2023-05-08T03:02:49;5.40;99.90
18454;DHT22;9356;52.202;20.950;2023-05-08T03:04:00;6.30;99.90
18454;DHT22;9356;52.202;20.950;2023-05-08T03:05:13;7.90;99.90
18454;DHT22;9356;52.202;20.950;2023-05-08T03:06:21;6.30;99.90
18454;DHT22;9356;52.202;20.950;2023-05-08T03:07:28;6.40;99.90
18454;DHT22;9356;52.202;20.950;2023-05-08T03:08:34;6.30;99.90
18454;DHT22;9356;52.202;20.950;2023-05-08T03:09:42;6.30;99.90
18454;DHT22;9356;52.202;20.950;2023-05-08T03:10:51;6.30;99.90
18454;DHT22;9356;52.202;20.950;2023-05-08T03:12:02;6.40;99.90
18454;DHT22;9356;52.202;20.950;2023-05-08T03:13:10;6.40;99.90
18454;DHT22;9356;52.202;20.950;2023-05-08T03:14:19;6.40;99.90
18454;DHT22;9356;52.202;20.950;2023-05-08T03:15:30;6.60;99.90
18454;DHT22;9356;52.202;20.950;2023-05-08T03:16:37;7.00;99.90
18454;DHT22;9356;52.202;20.950;2023-05-08T03:17:45;7.50;99.90
18454;DHT22;9356;52.202;20.950;2023-05-08T03:18:52;4.20;99.90
18454;DHT22;9356;52.202;20.950;2023-05-08T03:20:01;8.40;99.90
18454;DHT22;9356;52.202;20.950;2023-05-08T03:21:09;8.80;99.70
18454;DHT22;9356;52.202;20.950;2023-05-08T03:22:18;9.00;98.30
18454;DHT22;9356;52.202;20.950;2023-05-08T03:23:28;5.60;97.00
18454;DHT22;9356;52.202;20.950;2023-05-08T03:24:35;9.00;97.60
18454;DHT22;9356;52.202;20.950;2023-05-08T03:25:42;9.00;97.50
18454;DHT22;9356;52.202;20.950;2023-05-08T03:26:50;8.90;97.80
18454;DHT22;9356;52.202;20.950;2023-05-08T03:27:56;8.80;97.70
18454;DHT22;9356;52.202;20.950;2023-05-08T03:29:02;8.60;98.10
18454;DHT22;9356;52.202;20.950;2023-05-08T03:30:10;8.40;98.10
18454;DHT22;9356;52.202;20.950;2023-05-08T03:31:18;8.40;98.60
18454;DHT22;9356;52.202;20.950;2023-05-08T03:32:25;8.50;98.70
18454;DHT22;9356;52.202;20.950;2023-05-08T03:33:32;8.70;98.90
18454;DHT22;9356;52.202;20.950;2023-05-08T03:34:38;9.20;98.70
18454;DHT22;9356;52.202;20.950;2023-05-08T03:35:44;9.70;98.00
18454;DHT22;9356;52.202;20.950;2023-05-08T03:36:54;10.50;96.50
18454;DHT22;9356;52.202;20.950;2023-05-08T03:38:03;11.70;96.90
18454;DHT22;9356;52.202;20.950;2023-05-08T03:39:07;11.20;95.70
18454;DHT22;9356;52.202;20.950;2023-05-08T03:40:12;11.70;95.00
18454;DHT22;9356;52.202;20.950;2023-05-08T03:41:16;12.00;94.10
18454;DHT22;9356;52.202;20.950;2023-05-08T03:42:22;12.30;93.00
18454;DHT22;9356;52.202;20.950;2023-05-08T03:43:27;12.60;92.30
18454;DHT22;9356;52.202;20.950;2023-05-08T03:44:32;12.80;91.50
18454;DHT22;9356;52.202;20.950;2023-05-08T03:45:37;13.00;91.00
18454;DHT22;9356;52.202;20.950;2023-05-08T03:46:46;13.00;90.10
18454;DHT22;9356;52.202;20.950;2023-05-08T03:47:59;13.10;89.30
18454;DHT22;9356;52.202;20.950;2023-05-08T03:49:04;13.00;88.30
18454;DHT22;9356;52.202;20.950;2023-05-08T03:50:08;13.10;89.20
18454;DHT22;9356;52.202;20.950;2023-05-08T03:51:15;13.10;88.80
18454;DHT22;9356;52.202;20.950;2023-05-08T03:52:19;13.00;88.80
18454;DHT22;9356;52.202;20.950;2023-05-08T03:53:23;12.90;88.00
18454;DHT22;9356;52.202;20.950;2023-05-08T03:55:33;12.90;87.30
18454;DHT22;9356;52.202;20.950;2023-05-08T03:56:40;12.90;87.30
18454;DHT22;9356;52.202;20.950;2023-05-08T03:57:53;12.80;87.40
18454;DHT22;9356;52.202;20.950;2023-05-08T03:59:11;12.80;86.70
18454;DHT22;9356;52.202;20.950;2023-05-08T04:00:24;12.70;86.60
18454;DHT22;9356;52.202;20.950;2023-05-08T04:01:37;12.60;87.50
18454;DHT22;9356;52.202;20.950;2023-05-08T04:02:54;12.50;87.90
18454;DHT22;9356;52.202;20.950;2023-05-08T04:04:05;9.50;85.50
18454;DHT22;9356;52.202;20.950;2023-05-08T04:05:19;12.40;87.90
18454;DHT22;9356;52.202;20.950;2023-05-08T04:06:28;12.40;88.00
18454;DHT22;9356;52.202;20.950;2023-05-08T04:07:51;12.40;87.20
18454;DHT22;9356;52.202;20.950;2023-05-08T04:09:05;12.40;88.00
18454;DHT22;9356;52.202;20.950;2023-05-08T04:10:15;12.40;88.00
18454;DHT22;9356;52.202;20.950;2023-05-08T04:11:29;12.40;88.30
18454;DHT22;9356;52.202;20.950;2023-05-08T04:12:40;12.50;87.90
18454;DHT22;9356;52.202;20.950;2023-05-08T04:13:56;12.50;88.60
18454;DHT22;9356;52.202;20.950;2023-05-08T04:15:08;12.70;88.50
18454;DHT22;9356;52.202;20.950;2023-05-08T04:16:18;12.80;88.40
18454;DHT22;9356;52.202;20.950;2023-05-08T04:17:35;12.90;88.20
18454;DHT22;9356;52.202;20.950;2023-05-08T04:18:45;12.90;87.30
18454;DHT22;9356;52.202;20.950;2023-05-08T04:19:57;13.10;87.70
18454;DHT22;9356;52.202;20.950;2023-05-08T04:21:08;13.20;87.20
18454;DHT22;9356;52.202;20.950;2023-05-08T04:22:14;13.40;86.80
18454;DHT22;9356;52.202;20.950;2023-05-08T04:23:24;13.40;84.70
18454;DHT22;9356;52.202;20.950;2023-05-08T04:24:33;13.50;85.50
18454;DHT22;9356;52.202;20.950;2023-05-08T04:25:43;13.50;84.00
18454;DHT22;9356;52.202;20.950;2023-05-08T04:26:50;13.60;83.40
18454;DHT22;9356;52.202;20.950;2023-05-08T04:27:55;13.60;83.80
18454;DHT22;9356;52.202;20.950;2023-05-08T04:28:59;13.70;83.60
18454;DHT22;9356;52.202;20.950;2023-05-08T04:30:07;13.70;83.50
18454;DHT22;9356;52.202;20.950;2023-05-08T04:31:13;13.80;83.00
18454;DHT22;9356;52.202;20.950;2023-05-08T04:32:20;13.90;83.60
18454;DHT22;9356;52.202;20.950;2023-05-08T04:33:24;14.00;84.00
18454;DHT22;9356;52.202;20.950;2023-05-08T04:34:29;12.10;79.80
18454;DHT22;9356;52.202;20.950;2023-05-08T04:35:35;14.20;80.20
18454;DHT22;9356;52.202;20.950;2023-05-08T04:36:39;14.10;79.00
18454;DHT22;9356;52.202;20.950;2023-05-08T04:37:43;14.10;78.70
18454;DHT22;9356;52.202;20.950;2023-05-08T04:38:49;14.10;78.80
18454;DHT22;9356;52.202;20.950;2023-05-08T04:39:54;14.00;78.50
18454;DHT22;9356;52.202;20.950;2023-05-08T04:40:58;14.00;77.90
18454;DHT22;9356;52.202;20.950;2023-05-08T04:42:02;13.70;78.10
18454;DHT22;9356;52.202;20.950;2023-05-08T04:43:09;13.80;78.90
18454;DHT22;9356;52.202;20.950;2023-05-08T04:44:12;13.80;77.70
18454;DHT22;9356;52.202;20.950;2023-05-08T04:45:17;14.20;77.80
18454;DHT22;9356;52.202;20.950;2023-05-08T04:46:21;13.60;77.00
18454;DHT22;9356;52.202;20.950;2023-05-08T04:47:29;13.50;77.40
18454;DHT22;9356;52.202;20.950;2023-05-08T04:48:34;13.30;78.20
18454;DHT22;9356;52.202;20.950;2023-05-08T04:49:38;13.30;79.80
18454;DHT22;9356;52.202;20.950;2023-05-08T04:50:43;13.30;78.60
18454;DHT22;9356;52.202;20.950;2023-05-08T04:51:45;13.30;77.80
18454;DHT22;9356;52.202;20.950;2023-05-08T04:52:50;13.30;77.60
18454;DHT22;9356;52.202;20.950;2023-05-08T04:53:54;13.30;78.80
18454;DHT22;9356;52.202;20.950;2023-05-08T04:54:58;13.40;78.20
18454;DHT22;9356;52.202;20.950;2023-05-08T04:56:02;13.50;78.80
18454;DHT22;9356;52.202;20.950;2023-05-08T04:57:06;13.60;78.30
18454;DHT22;9356;52.202;20.950;2023-05-08T04:58:10;13.80;78.60
18454;DHT22;9356;52.202;20.950;2023-05-08T04:59:14;13.90;76.60
18454;DHT22;9356;52.202;20.950;2023-05-08T05:00:19;13.90;76.30
18454;DHT22;9356;52.202;20.950;2023-05-08T05:01:23;14.10;77.10
18454;DHT22;9356;52.202;20.950;2023-05-08T05:02:26;14.30;75.40
18454;DHT22;9356;52.202;20.950;2023-05-08T05:03:30;14.40;74.10
18454;DHT22;9356;52.202;20.950;2023-05-08T05:04:34;13.30;74.00
18454;DHT22;9356;52.202;20.950;2023-05-08T05:05:39;14.50;74.90
18454;DHT22;9356;52.202;20.950;2023-05-08T05:06:42;14.60;76.10
18454;DHT22;9356;52.202;20.950;2023-05-08T05:07:46;14.70;74.50
18454;DHT22;9356;52.202;20.950;2023-05-08T05:08:50;14.80;76.90
18454;DHT22;9356;52.202;20.950;2023-05-08T05:09:55;16.20;73.70
18454;DHT22;9356;52.202;20.950;2023-05-08T05:10:58;15.00;71.10
18454;DHT22;9356;52.202;20.950;2023-05-08T05:12:02;15.00;70.30
18454;DHT22;9356;52.202;20.950;2023-05-08T05:13:07;14.90;70.00
18454;DHT22;9356;52.202;20.950;2023-05-08T05:14:10;14.70;71.00
18454;DHT22;9356;52.202;20.950;2023-05-08T05:15:13;14.60;70.40
18454;DHT22;9356;52.202;20.950;2023-05-08T05:16:17;14.50;70.60
18454;DHT22;9356;52.202;20.950;2023-05-08T05:17:20;14.50;70.20
18454;DHT22;9356;52.202;20.950;2023-05-08T05:18:26;14.40;70.50
18454;DHT22;9356;52.202;20.950;2023-05-08T05:19:29;12.50;70.00
18454;DHT22;9356;52.202;20.950;2023-05-08T05:20:33;14.40;70.10
18454;DHT22;9356;52.202;20.950;2023-05-08T05:21:37;14.50;70.70
18454;DHT22;9356;52.202;20.950;2023-05-08T05:22:40;14.40;69.70
18454;DHT22;9356;52.202;20.950;2023-05-08T05:23:45;14.30;69.70
18454;DHT22;9356;52.202;20.950;2023-05-08T05:24:50;14.40;71.80
18454;DHT22;9356;52.202;20.950;2023-05-08T05:25:54;14.50;70.40
18454;DHT22;9356;52.202;20.950;2023-05-08T05:26:57;15.80;70.60
18454;DHT22;9356;52.202;20.950;2023-05-08T05:28:01;14.50;69.60
18454;DHT22;9356;52.202;20.950;2023-05-08T05:29:06;14.40;70.50
18454;DHT22;9356;52.202;20.950;2023-05-08T05:30:11;14.50;72.60
18454;DHT22;9356;52.202;20.950;2023-05-08T05:31:15;14.60;71.20
18454;DHT22;9356;52.202;20.950;2023-05-08T05:32:18;14.70;69.70
18454;DHT22;9356;52.202;20.950;2023-05-08T05:33:22;14.80;69.90
18454;DHT22;9356;52.202;20.950;2023-05-08T05:34:24;14.90;70.30
18454;DHT22;9356;52.202;20.950;2023-05-08T05:35:28;15.00;68.60
18454;DHT22;9356;52.202;20.950;2023-05-08T05:36:31;15.00;67.50
18454;DHT22;9356;52.202;20.950;2023-05-08T05:37:35;15.10;66.90
18454;DHT22;9356;52.202;20.950;2023-05-08T05:38:38;15.20;66.90
18454;DHT22;9356;52.202;20.950;2023-05-08T05:39:43;15.30;65.80
18454;DHT22;9356;52.202;20.950;2023-05-08T05:40:45;15.20;65.60
18454;DHT22;9356;52.202;20.950;2023-05-08T05:41:51;15.30;66.10
18454;DHT22;9356;52.202;20.950;2023-05-08T05:42:53;15.30;66.30
18454;DHT22;9356;52.202;20.950;2023-05-08T05:43:57;15.40;66.50
18454;DHT22;9356;52.202;20.950;2023-05-08T05:44:59;15.50;66.00
18454;DHT22;9356;52.202;20.950;2023-05-08T05:46:07;16.70;65.30
18454;DHT22;9356;52.202;20.950;2023-05-08T05:47:13;15.50;64.20
18454;DHT22;9356;52.202;20.950;2023-05-08T05:48:17;15.40;63.10
18454;DHT22;9356;52.202;20.950;2023-05-08T05:49:21;15.30;64.40
18454;DHT22;9356;52.202;20.950;2023-05-08T06:02:07;16.50;63.60
18454;DHT22;9356;52.202;20.950;2023-05-08T06:47:17;16.20;68.60
18454;DHT22;9356;52.202;20.950;2023-05-08T07:13:01;17.50;56.10
18454;DHT22;9356;52.202;20.950;2023-05-08T07:14:10;17.70;56.30
18454;DHT22;9356;52.202;20.950;2023-05-08T07:15:15;17.80;55.80
18454;DHT22;9356;52.202;20.950;2023-05-08T07:16:27;19.90;55.20
18454;DHT22;9356;52.202;20.950;2023-05-08T07:17:30;17.40;54.90
18454;DHT22;9356;52.202;20.950;2023-05-08T07:18:34;17.30;54.60
18454;DHT22;9356;52.202;20.950;2023-05-08T07:19:40;17.30;54.70
18454;DHT22;9356;52.202;20.950;2023-05-08T07:21:47;16.80;54.50
18454;DHT22;9356;52.202;20.950;2023-05-08T07:22:51;20.40;56.10
18454;DHT22;9356;52.202;20.950;2023-05-08T07:23:54;16.30;55.70
18454;DHT22;9356;52.202;20.950;2023-05-08T07:24:58;16.20;56.00
18454;DHT22;9356;52.202;20.950;2023-05-08T07:26:01;16.30;57.30
18454;DHT22;9356;52.202;20.950;2023-05-08T07:27:05;16.30;56.80
18454;DHT22;9356;52.202;20.950;2023-05-08T07:28:09;16.20;57.40
18454;DHT22;9356;52.202;20.950;2023-05-08T07:59:25;17.90;53.50
18454;DHT22;9356;52.202;20.950;2023-05-08T08:00:33;17.90;54.90
18454;DHT22;9356;52.202;20.950;2023-05-08T08:01:41;15.00;53.70
18454;DHT22;9356;52.202;20.950;2023-05-08T08:02:49;17.90;55.20
18454;DHT22;9356;52.202;20.950;2023-05-08T08:03:52;17.80;57.00
18454;DHT22;9356;52.202;20.950;2023-05-08T08:04:57;17.90;54.50
18454;DHT22;9356;52.202;20.950;2023-05-08T08:06:02;17.80;53.20
18454;DHT22;9356;52.202;20.950;2023-05-08T08:07:09;17.70;54.20
18454;DHT22;9356;52.202;20.950;2023-05-08T08:08:13;17.60;53.60
18454;DHT22;9356;52.202;20.950;2023-05-08T08:09:19;17.60;54.80
18454;DHT22;9356;52.202;20.950;2023-05-08T08:10:25;17.60;52.40
18454;DHT22;9356;52.202;20.950;2023-05-08T08:11:29;17.60;53.40
18454;DHT22;9356;52.202;20.950;2023-05-08T08:12:35;17.50;53.20
18454;DHT22;9356;52.202;20.950;2023-05-08T08:13:38;17.50;52.50
18454;DHT22;9356;52.202;20.950;2023-05-08T08:14:42;17.60;52.70
18454;DHT22;9356;52.202;20.950;2023-05-08T08:15:46;17.40;53.40
18454;DHT22;9356;52.202;20.950;2023-05-08T08:17:53;17.50;57.50
18454;DHT22;9356;52.202;20.950;2023-05-08T08:22:09;17.80;53.90
18454;DHT22;9356;52.202;20.950;2023-05-08T09:12:12;17.40;51.60
18454;DHT22;9356;52.202;20.950;2023-05-08T09:13:15;17.50;50.60
18454;DHT22;9356;52.202;20.950;2023-05-08T10:56:28;17.20;45.90
18454;DHT22;9356;52.202;20.950;2023-05-08T11:01:16;17.10;46.70
18454;DHT22;9356;52.202;20.950;2023-05-08T11:57:18;17.20;44.20
18454;DHT22;9356;52.202;20.950;2023-05-08T12:00:39;17.30;44.40
18454;DHT22;9356;52.202;20.950;2023-05-08T12:02:54;17.40;44.90
18454;DHT22;9356;52.202;20.950;2023-05-08T12:04:02;18.00;45.30
18454;DHT22;9356;52.202;20.950;2023-05-08T12:05:06;17.70;48.10
18454;DHT22;9356;52.202;20.950;2023-05-08T12:07:13;17.90;47.20
18454;DHT22;9356;52.202;20.950;2023-05-08T12:08:18;18.00;46.80
18454;DHT22;9356;52.202;20.950;2023-05-08T12:09:23;18.20;45.20
18454;DHT22;9356;52.202;20.950;2023-05-08T12:11:30;18.30;43.90
18454;DHT22;9356;52.202;20.950;2023-05-08T12:12:36;18.30;44.30
18454;DHT22;9356;52.202;20.950;2023-05-08T12:13:48;18.20;44.30
18454;DHT22;9356;52.202;20.950;2023-05-08T12:14:51;21.90;45.70
18454;DHT22;9356;52.202;20.950;2023-05-08T12:20:17;17.40;44.90
18454;DHT22;9356;52.202;20.950;2023-05-08T12:23:29;17.20;44.60
18454;DHT22;9356;52.202;20.950;2023-05-08T12:25:39;17.30;45.10
18454;DHT22;9356;52.202;20.950;2023-05-08T12:26:41;17.30;45.00
18454;DHT22;9356;52.202;20.950;2023-05-08T12:28:54;17.20;49.30
18454;DHT22;9356;52.202;20.950;2023-05-08T12:29:58;17.30;47.30
18454;DHT22;9356;52.202;20.950;2023-05-08T12:32:06;17.20;45.30
18454;DHT22;9356;52.202;20.950;2023-05-08T12:33:13;17.30;46.20
18454;DHT22;9356;52.202;20.950;2023-05-08T12:34:19;17.40;45.80
18454;DHT22;9356;52.202;20.950;2023-05-08T12:35:23;17.20;45.10
18454;DHT22;9356;52.202;20.950;2023-05-08T12:36:27;17.00;45.20
18454;DHT22;9356;52.202;20.950;2023-05-08T12:37:34;17.10;45.80
18454;DHT22;9356;52.202;20.950;2023-05-08T12:38:39;17.10;49.00
18454;DHT22;9356;52.202;20.950;2023-05-08T12:39:53;17.10;48.10
18454;DHT22;9356;52.202;20.950;2023-05-08T12:40:58;13.70;45.70
18454;DHT22;9356;52.202;20.950;2023-05-08T12:42:08;19.70;48.80
18454;DHT22;9356;52.202;20.950;2023-05-08T12:43:11;17.40;47.20
18454;DHT22;9356;52.202;20.950;2023-05-08T12:44:20;17.60;45.40
18454;DHT22;9356;52.202;20.950;2023-05-08T12:45:25;17.80;46.00
18454;DHT22;9356;52.202;20.950;2023-05-08T12:46:29;18.00;46.10
18454;DHT22;9356;52.202;20.950;2023-05-08T12:47:35;18.40;46.60
18454;DHT22;9356;52.202;20.950;2023-05-08T12:48:38;18.60;45.40
18454;DHT22;9356;52.202;20.950;2023-05-08T12:49:42;18.80;44.10
18454;DHT22;9356;52.202;20.950;2023-05-08T12:50:45;18.90;41.90
18454;DHT22;9356;52.202;20.950;2023-05-08T12:51:49;18.80;41.70
18454;DHT22;9356;52.202;20.950;2023-05-08T12:52:52;18.80;42.90